createdAt,value
2019-05-03T00:00:14.073Z,11.97
2019-05-03T00:03:02.083Z,11.99
2019-05-03T00:05:56.314Z,11.99
2019-05-03T00:08:25.661Z,11.96
2019-05-03T00:10:54.783Z,11.94
2019-05-03T00:13:24.035Z,11.99
2019-05-03T00:16:12.301Z,12.06
2019-05-03T00:18:42.242Z,12.03
2019-05-03T00:21:11.733Z,11.99
2019-05-03T00:23:41.771Z,11.97
2019-05-03T00:26:12.012Z,11.99
2019-05-03T00:28:42.659Z,12.01
2019-05-03T00:31:12.441Z,12.04
2019-05-03T00:33:43.370Z,12.02
2019-05-03T00:36:18.755Z,11.95
2019-05-03T00:38:48.370Z,11.93
2019-05-03T00:41:17.664Z,11.94
2019-05-03T00:43:46.871Z,11.94
2019-05-03T00:46:15.966Z,11.95
2019-05-03T00:48:45.226Z,11.92
2019-05-03T00:51:14.462Z,11.96
2019-05-03T00:53:43.704Z,11.94
2019-05-03T00:56:12.813Z,12.01
2019-05-03T00:58:55.634Z,11.92
2019-05-03T01:01:25.059Z,11.91
2019-05-03T01:03:54.388Z,11.91
2019-05-03T01:06:23.566Z,11.93
2019-05-03T01:08:52.731Z,11.87
2019-05-03T01:11:22.457Z,11.84
2019-05-03T01:13:52.195Z,11.87
2019-05-03T01:16:22.798Z,11.85
2019-05-03T01:18:52.306Z,11.85
2019-05-03T01:21:22.547Z,11.79
2019-05-03T01:23:52.712Z,11.80
2019-05-03T01:26:22.805Z,11.83
2019-05-03T01:28:52.441Z,11.81
2019-05-03T01:31:22.850Z,11.81
2019-05-03T01:33:52.285Z,11.75
2019-05-03T01:36:22.802Z,11.73
2019-05-03T01:38:52.914Z,11.77
2019-05-03T01:41:22.405Z,11.81
2019-05-03T01:43:52.677Z,11.79
2019-05-03T01:46:22.775Z,11.83
2019-05-03T01:49:07.540Z,11.84
2019-05-03T01:52:07.738Z,11.79
2019-05-03T01:54:37.162Z,11.79
2019-05-03T01:57:06.407Z,11.75
2019-05-03T01:59:35.642Z,11.80
2019-05-03T02:02:13.094Z,11.75
2019-05-03T02:04:58.428Z,11.75
2019-05-03T02:07:27.700Z,11.78
2019-05-03T02:09:56.927Z,11.79
2019-05-03T02:12:26.138Z,11.81
2019-05-03T02:14:55.381Z,11.82
2019-05-03T02:17:24.605Z,11.86
2019-05-03T02:19:53.830Z,11.80
2019-05-03T02:22:22.946Z,11.78
2019-05-03T02:24:52.655Z,11.76
2019-05-03T02:27:22.015Z,11.76
2019-05-03T02:29:52.421Z,11.80
2019-05-03T02:32:23.218Z,11.77
2019-05-03T02:34:53.522Z,11.77
2019-05-03T02:37:23.078Z,11.78
2019-05-03T02:39:56.555Z,11.79
2019-05-03T02:42:26.518Z,11.75
2019-05-03T02:44:55.999Z,11.74
2019-05-03T02:47:42.735Z,11.71
2019-05-03T02:50:16.657Z,11.70
2019-05-03T02:52:45.967Z,11.77
2019-05-03T02:55:16.271Z,11.72
2019-05-03T02:57:46.713Z,11.66
2019-05-03T03:00:18.056Z,11.71
2019-05-03T03:02:47.587Z,11.86
2019-05-03T03:05:17.063Z,11.80
2019-05-03T03:07:47.092Z,11.79
2019-05-03T03:10:17.454Z,11.76
2019-05-03T03:12:48.828Z,11.71
2019-05-03T03:15:17.961Z,11.69
2019-05-03T03:17:48.426Z,11.73
2019-05-03T03:20:17.926Z,11.69
2019-05-03T03:22:48.150Z,11.73
2019-05-03T03:25:25.756Z,11.68
2019-05-03T03:27:58.470Z,11.69
2019-05-03T03:30:50.674Z,11.69
2019-05-03T03:33:19.615Z,11.67
2019-05-03T03:35:49.602Z,11.64
2019-05-03T03:38:18.705Z,11.64
2019-05-03T03:40:48.139Z,11.63
2019-05-03T03:43:19.023Z,11.63
2019-05-03T03:45:48.845Z,11.62
2019-05-03T03:48:20.448Z,11.61
2019-05-03T03:50:52.152Z,11.71
2019-05-03T03:53:22.736Z,11.69
2019-05-03T03:55:56.220Z,11.68
2019-05-03T03:58:27.121Z,11.62
2019-05-03T04:00:55.653Z,11.63
2019-05-03T04:03:26.043Z,11.60
2019-05-03T04:05:55.744Z,11.63
2019-05-03T04:08:25.333Z,11.59
2019-05-03T04:10:55.875Z,11.60
2019-05-03T04:13:25.862Z,11.59
2019-05-03T04:16:25.943Z,11.56
2019-05-03T04:19:02.451Z,11.56
2019-05-03T04:21:31.552Z,11.57
2019-05-03T04:24:00.767Z,11.62
2019-05-03T04:26:30.391Z,11.59
2019-05-03T04:28:59.603Z,11.54
2019-05-03T04:31:28.957Z,11.53
2019-05-03T04:33:58.254Z,11.55
2019-05-03T04:36:27.427Z,11.56
2019-05-03T04:38:56.703Z,11.56
2019-05-03T04:41:26.877Z,11.55
2019-05-03T04:43:56.286Z,11.53
2019-05-03T04:46:26.124Z,11.56
2019-05-03T04:48:56.085Z,11.69
2019-05-03T04:51:26.174Z,11.33
2019-05-03T04:54:16.142Z,11.17
2019-05-03T04:56:46.518Z,10.89
2019-05-03T04:59:15.932Z,10.70
2019-05-03T05:01:46.223Z,10.49
2019-05-03T05:04:16.209Z,10.53
2019-05-03T05:06:45.621Z,10.45
2019-05-03T05:09:15.616Z,10.44
2019-05-03T05:11:45.805Z,10.42
2019-05-03T05:14:15.527Z,10.44
2019-05-03T05:16:46.559Z,10.36
2019-05-03T05:19:19.094Z,10.31
2019-05-03T05:21:52.639Z,10.33
2019-05-03T05:24:21.975Z,10.38
2019-05-03T05:27:14.628Z,10.38
2019-05-03T05:29:45.064Z,10.40
2019-05-03T05:32:14.588Z,10.38
2019-05-03T05:34:45.929Z,10.41
2019-05-03T05:37:14.996Z,10.43
2019-05-03T05:39:44.744Z,10.45
2019-05-03T05:42:14.939Z,10.42
2019-05-03T05:44:45.420Z,10.44
2019-05-03T05:47:28.579Z,10.42
2019-05-03T05:50:16.676Z,10.42
2019-05-03T05:52:45.796Z,10.46
2019-05-03T05:55:37.097Z,10.41
2019-05-03T05:58:25.783Z,10.45
2019-05-03T06:00:58.768Z,10.45
2019-05-03T06:03:28.064Z,10.45
2019-05-03T06:05:59.175Z,10.45
2019-05-03T06:08:54.730Z,10.43
2019-05-03T06:11:39.118Z,10.48
2019-05-03T06:14:30.456Z,10.46
2019-05-03T06:17:07.792Z,10.52
2019-05-03T06:19:44.915Z,10.52
2019-05-03T06:22:21.606Z,10.47
2019-05-03T06:24:56.642Z,10.48
2019-05-03T06:27:34.654Z,10.50
2019-05-03T06:30:11.905Z,10.50
2019-05-03T06:32:41.845Z,10.56
2019-05-03T06:35:11.522Z,10.62
2019-05-03T06:37:45.808Z,10.70
2019-05-03T06:40:15.160Z,10.80
2019-05-03T06:42:52.383Z,10.78
2019-05-03T06:45:15.896Z,10.84
2019-05-03T06:47:49.461Z,10.83
2019-05-03T06:50:19.643Z,10.85
2019-05-03T06:52:47.847Z,10.95
2019-05-03T06:55:17.149Z,11.04
2019-05-03T06:57:49.554Z,11.15
2019-05-03T07:00:50.497Z,11.19
2019-05-03T07:03:26.124Z,11.27
2019-05-03T07:06:18.637Z,11.33
2019-05-03T07:08:59.063Z,11.39
2019-05-03T07:11:28.238Z,11.46
2019-05-03T07:13:57.319Z,11.51
2019-05-03T07:16:26.471Z,11.54
2019-05-03T07:18:58.134Z,11.65
2019-05-03T07:21:26.631Z,11.78
2019-05-03T07:23:55.986Z,11.82
2019-05-03T07:26:25.528Z,11.88
2019-05-03T07:28:54.877Z,11.90
2019-05-03T07:31:25.547Z,11.97
2019-05-03T07:33:55.443Z,12.13
2019-05-03T07:36:27.618Z,12.23
2019-05-03T07:38:55.633Z,12.36
2019-05-03T07:41:27.146Z,12.63
2019-05-03T07:43:55.850Z,12.83
2019-05-03T07:46:24.919Z,12.82
2019-05-03T07:48:54.834Z,12.72
2019-05-03T07:51:24.847Z,12.77
2019-05-03T07:53:55.590Z,12.66
2019-05-03T07:56:28.975Z,12.74
2019-05-03T07:59:03.396Z,12.72
2019-05-03T08:01:38.978Z,12.81
2019-05-03T08:04:08.083Z,12.86
2019-05-03T08:06:37.231Z,12.90
2019-05-03T08:09:08.456Z,13.21
2019-05-03T08:11:37.892Z,13.28
2019-05-03T08:14:07.939Z,13.15
2019-05-03T08:16:37.396Z,13.31
2019-05-03T08:19:06.463Z,13.26
2019-05-03T08:21:37.830Z,13.45
2019-05-03T08:24:06.661Z,13.56
2019-05-03T08:26:35.697Z,13.81
2019-05-03T08:29:15.675Z,14.16
2019-05-03T08:31:55.150Z,14.74
2019-05-03T08:34:38.258Z,15.23
2019-05-03T08:37:09.488Z,14.94
2019-05-03T08:39:38.721Z,14.77
2019-05-03T08:42:11.752Z,14.70
2019-05-03T08:44:40.817Z,14.73
2019-05-03T08:47:09.934Z,14.17
2019-05-03T08:49:39.121Z,14.25
2019-05-03T08:52:08.574Z,14.20
2019-05-03T08:54:37.632Z,14.59
2019-05-03T08:57:06.727Z,15.06
2019-05-03T08:59:35.984Z,15.52
2019-05-03T09:02:13.991Z,15.58
2019-05-03T09:04:38.587Z,15.46
2019-05-03T09:07:07.304Z,15.41
2019-05-03T09:09:54.965Z,14.72
2019-05-03T09:12:25.208Z,14.64
2019-05-03T09:14:54.846Z,14.61
2019-05-03T09:17:24.708Z,14.59
2019-05-03T09:19:54.820Z,15.08
2019-05-03T09:22:25.580Z,15.46
2019-05-03T09:24:54.984Z,15.89
2019-05-03T09:27:24.816Z,15.83
2019-05-03T09:29:55.846Z,15.80
2019-05-03T09:32:25.654Z,16.06
2019-05-03T09:34:55.152Z,16.19
2019-05-03T09:37:25.026Z,16.06
2019-05-03T09:39:55.209Z,15.73
2019-05-03T09:42:24.911Z,15.28
2019-05-03T09:44:55.606Z,15.04
2019-05-03T09:47:25.350Z,14.95
2019-05-03T09:49:55.851Z,14.75
2019-05-03T09:52:25.292Z,14.56
2019-05-03T09:54:56.300Z,14.43
2019-05-03T09:57:25.980Z,14.36
2019-05-03T09:59:59.805Z,14.32
2019-05-03T10:02:26.315Z,14.19
2019-05-03T10:04:55.545Z,14.12
2019-05-03T10:07:25.933Z,14.05
2019-05-03T10:09:55.477Z,14.05
2019-05-03T10:12:25.676Z,14.05
2019-05-03T10:14:55.132Z,14.10
2019-05-03T10:17:45.788Z,14.14
2019-05-03T10:20:15.490Z,14.24
2019-05-03T10:22:44.574Z,14.25
2019-05-03T10:25:13.824Z,14.56
2019-05-03T10:27:46.202Z,14.85
2019-05-03T10:30:19.562Z,15.38
2019-05-03T10:32:54.626Z,15.85
2019-05-03T10:35:24.681Z,16.18
2019-05-03T10:37:54.884Z,16.29
2019-05-03T10:40:46.964Z,16.56
2019-05-03T10:43:16.213Z,16.81
2019-05-03T10:45:45.393Z,17.04
2019-05-03T10:48:16.034Z,17.08
2019-05-03T10:50:45.552Z,16.98
2019-05-03T10:53:21.808Z,17.17
2019-05-03T10:56:13.948Z,17.23
2019-05-03T10:58:45.587Z,17.09
2019-05-03T11:01:16.414Z,17.19
2019-05-03T11:03:45.905Z,17.76
2019-05-03T11:06:15.310Z,18.16
2019-05-03T11:08:45.086Z,18.34
2019-05-03T11:11:15.127Z,18.48
2019-05-03T11:13:44.361Z,18.59
2019-05-03T11:16:14.794Z,18.71
2019-05-03T11:18:45.576Z,18.69
2019-05-03T11:21:27.721Z,18.54
2019-05-03T11:23:45.596Z,18.50
2019-05-03T11:26:14.851Z,18.74
2019-05-03T11:28:44.891Z,18.42
2019-05-03T11:31:31.805Z,18.43
2019-05-03T11:34:02.766Z,18.55
2019-05-03T11:36:54.937Z,18.64
2019-05-03T11:39:25.056Z,18.69
2019-05-03T11:41:56.997Z,19.14
2019-05-03T11:44:38.422Z,19.14
2019-05-03T11:47:07.960Z,19.17
2019-05-03T11:49:37.297Z,19.10
2019-05-03T11:52:06.788Z,19.26
2019-05-03T11:54:36.171Z,19.43
2019-05-03T11:57:10.702Z,18.85
2019-05-03T11:59:42.015Z,18.38
2019-05-03T12:02:30.203Z,17.89
2019-05-03T12:05:00.480Z,17.41
2019-05-03T12:07:39.534Z,16.57
2019-05-03T12:10:13.891Z,16.67
2019-05-03T12:12:37.815Z,16.73
2019-05-03T12:15:07.054Z,16.70
2019-05-03T12:17:50.823Z,16.71
2019-05-03T12:20:13.580Z,16.51
2019-05-03T12:22:43.725Z,16.41
2019-05-03T12:25:16.705Z,16.24
2019-05-03T12:27:45.532Z,16.28
2019-05-03T12:30:15.335Z,16.24
2019-05-03T12:32:44.791Z,15.95
2019-05-03T12:35:15.395Z,16.02
2019-05-03T12:37:44.738Z,15.93
2019-05-03T12:40:14.954Z,15.86
2019-05-03T12:42:45.489Z,15.90
2019-05-03T12:45:15.324Z,15.86
2019-05-03T12:47:45.484Z,15.80
2019-05-03T12:50:15.697Z,15.81
2019-05-03T12:52:50.403Z,15.74
2019-05-03T12:55:16.024Z,15.65
2019-05-03T12:57:45.883Z,15.65
2019-05-03T13:00:48.640Z,15.58
2019-05-03T13:03:24.636Z,15.55
2019-05-03T13:05:55.596Z,15.58
2019-05-03T13:08:35.680Z,15.64
2019-05-03T13:11:05.535Z,15.63
2019-05-03T13:13:35.855Z,15.65
2019-05-03T13:16:06.136Z,15.67
2019-05-03T13:18:35.589Z,15.61
2019-05-03T13:21:05.995Z,15.58
2019-05-03T13:23:35.903Z,15.67
2019-05-03T13:26:08.673Z,15.75
2019-05-03T13:28:37.914Z,15.74
2019-05-03T13:31:07.962Z,15.74
2019-05-03T13:33:37.363Z,15.70
2019-05-03T13:36:06.937Z,15.68
2019-05-03T13:38:36.238Z,15.68
2019-05-03T13:41:06.834Z,15.67
2019-05-03T13:43:36.350Z,15.69
2019-05-03T13:46:05.913Z,15.69
2019-05-03T13:48:45.296Z,15.68
2019-05-03T13:51:06.053Z,15.52
2019-05-03T13:53:35.222Z,15.39
2019-05-03T13:56:04.941Z,15.24
2019-05-03T13:58:35.783Z,15.18
2019-05-03T14:01:05.795Z,15.12
2019-05-03T14:03:35.293Z,15.08
2019-05-03T14:06:08.656Z,15.16
2019-05-03T14:08:36.223Z,15.21
2019-05-03T14:11:05.479Z,15.31
2019-05-03T14:13:35.408Z,15.55
2019-05-03T14:16:05.765Z,15.60
2019-05-03T14:18:35.480Z,15.71
2019-05-03T14:21:39.239Z,15.63
2019-05-03T14:24:13.222Z,15.58
2019-05-03T14:26:44.784Z,15.51
2019-05-03T14:29:14.904Z,15.45
2019-05-03T14:31:45.334Z,15.37
2019-05-03T14:34:17.108Z,15.29
2019-05-03T14:36:45.532Z,15.14
2019-05-03T14:39:15.148Z,15.07
2019-05-03T14:41:46.774Z,14.96
2019-05-03T14:44:17.859Z,14.89
2019-05-03T14:46:46.282Z,14.91
2019-05-03T14:49:15.447Z,14.73
2019-05-03T14:51:45.557Z,14.72
2019-05-03T14:54:15.755Z,14.63
2019-05-03T14:57:06.918Z,14.62
2019-05-03T15:00:16.957Z,14.72
2019-05-03T15:03:08.895Z,14.85
2019-05-03T15:05:38.040Z,14.88
2019-05-03T15:08:07.620Z,14.86
2019-05-03T15:10:37.045Z,14.96
2019-05-03T15:13:06.279Z,14.97
2019-05-03T15:15:36.269Z,15.04
2019-05-03T15:18:05.964Z,15.11
2019-05-03T15:20:35.107Z,15.14
2019-05-03T15:23:05.509Z,15.14
2019-05-03T15:25:34.837Z,15.15
2019-05-03T15:28:05.044Z,15.20
2019-05-03T15:30:35.370Z,15.25
2019-05-03T15:33:05.265Z,15.30
2019-05-03T15:35:35.132Z,15.35
2019-05-03T15:38:05.543Z,15.40
2019-05-03T15:40:34.814Z,15.42
2019-05-03T15:43:19.481Z,15.43
2019-05-03T15:45:56.170Z,15.47
2019-05-03T15:48:28.030Z,15.53
2019-05-03T15:50:57.161Z,15.50
2019-05-03T15:53:28.090Z,15.56
2019-05-03T15:55:57.243Z,15.64
2019-05-03T15:58:26.565Z,15.68
2019-05-03T16:00:55.707Z,15.70
2019-05-03T16:03:25.352Z,15.84
2019-05-03T16:05:55.658Z,15.84
2019-05-03T16:08:25.215Z,15.77
2019-05-03T16:10:54.872Z,15.73
2019-05-03T16:13:25.293Z,15.76
2019-05-03T16:15:55.362Z,15.75
2019-05-03T16:18:24.757Z,15.76
2019-05-03T16:20:54.614Z,15.70
2019-05-03T16:23:25.234Z,15.64
2019-05-03T16:25:54.643Z,15.51
2019-05-03T16:28:46.062Z,15.52
2019-05-03T16:31:16.246Z,15.57
2019-05-03T16:33:45.788Z,15.49
2019-05-03T16:36:15.003Z,15.48
2019-05-03T16:38:44.897Z,15.46
2019-05-03T16:41:17.441Z,15.40
2019-05-03T16:43:45.702Z,15.40
2019-05-03T16:46:14.848Z,15.38
2019-05-03T16:48:44.798Z,15.44
2019-05-03T16:51:15.042Z,15.43
2019-05-03T16:53:45.194Z,15.43
2019-05-03T16:56:16.569Z,15.34
2019-05-03T16:58:45.769Z,15.37
2019-05-03T17:01:17.899Z,15.34
2019-05-03T17:03:50.998Z,15.33
2019-05-03T17:06:39.454Z,15.33
2019-05-03T17:09:18.166Z,15.34
2019-05-03T17:12:06.229Z,15.47
2019-05-03T17:14:35.865Z,15.39
2019-05-03T17:17:07.267Z,15.34
2019-05-03T17:19:36.202Z,15.26
2019-05-03T17:22:05.784Z,15.01
2019-05-03T17:24:35.398Z,14.85
2019-05-03T17:27:05.085Z,14.60
2019-05-03T17:29:35.109Z,14.48
2019-05-03T17:32:04.933Z,14.36
2019-05-03T17:34:34.746Z,14.22
2019-05-03T17:37:04.964Z,14.09
2019-05-03T17:39:54.733Z,13.88
2019-05-03T17:42:42.904Z,13.84
2019-05-03T17:45:14.704Z,13.73
2019-05-03T17:47:45.443Z,13.69
2019-05-03T17:50:14.862Z,13.64
2019-05-03T17:53:02.885Z,13.49
2019-05-03T17:55:42.140Z,13.45
2019-05-03T17:58:30.351Z,13.47
2019-05-03T18:01:13.406Z,13.47
2019-05-03T18:03:44.978Z,13.46
2019-05-03T18:06:21.032Z,13.45
2019-05-03T18:08:59.282Z,13.40
2019-05-03T18:11:34.637Z,13.35
2019-05-03T18:14:05.550Z,13.34
2019-05-03T18:16:35.093Z,13.31
2019-05-03T18:19:05.217Z,13.21
2019-05-03T18:21:34.749Z,13.31
2019-05-03T18:24:04.951Z,13.37
2019-05-03T18:26:35.541Z,13.43
2019-05-03T18:29:05.797Z,13.36
2019-05-03T18:31:35.024Z,13.36
2019-05-03T18:34:05.176Z,13.32
2019-05-03T18:36:35.099Z,13.18
2019-05-03T18:39:06.766Z,13.09
2019-05-03T18:41:35.941Z,12.98
2019-05-03T18:44:21.045Z,12.84
2019-05-03T18:46:55.064Z,12.76
2019-05-03T18:49:24.862Z,12.73
2019-05-03T18:51:55.392Z,12.67
2019-05-03T18:54:25.143Z,12.61
2019-05-03T18:56:55.749Z,12.56
2019-05-03T18:59:25.232Z,12.48
2019-05-03T19:01:55.191Z,12.46
2019-05-03T19:04:35.785Z,12.39
2019-05-03T19:07:07.383Z,12.33
2019-05-03T19:09:49.501Z,12.30
2019-05-03T19:12:40.776Z,12.28
2019-05-03T19:15:11.401Z,12.20
2019-05-03T19:18:04.366Z,12.11
2019-05-03T19:20:35.235Z,12.03
2019-05-03T19:23:05.042Z,11.91
2019-05-03T19:25:45.807Z,11.80
2019-05-03T19:28:07.899Z,11.65
2019-05-03T19:30:38.861Z,11.61
2019-05-03T19:33:09.072Z,11.59
2019-05-03T19:35:38.514Z,11.55
2019-05-03T19:38:07.862Z,11.45
2019-05-03T19:40:37.125Z,11.41
2019-05-03T19:43:06.241Z,11.38
2019-05-03T19:45:35.480Z,11.34
2019-05-03T19:48:04.730Z,11.38
2019-05-03T19:50:35.300Z,11.34
2019-05-03T19:53:17.505Z,11.29
2019-05-03T19:55:50.373Z,11.29
2019-05-03T19:58:17.957Z,11.20
2019-05-03T20:01:12.127Z,11.18
2019-05-03T20:03:48.333Z,11.14
2019-05-03T20:06:25.239Z,11.13
2019-05-03T20:08:59.509Z,11.16
2019-05-03T20:11:28.895Z,11.13
2019-05-03T20:13:58.264Z,11.07
2019-05-03T20:16:27.375Z,10.95
2019-05-03T20:18:56.529Z,10.96
2019-05-03T20:21:25.834Z,10.97
2019-05-03T20:23:55.517Z,10.94
2019-05-03T20:26:25.381Z,10.98
2019-05-03T20:28:55.349Z,10.90
2019-05-03T20:31:25.291Z,10.92
2019-05-03T20:33:56.152Z,10.91
2019-05-03T20:36:25.466Z,10.88
2019-05-03T20:38:55.090Z,10.93
2019-05-03T20:41:27.521Z,10.96
2019-05-03T20:44:18.567Z,10.95
2019-05-03T20:46:57.928Z,10.98
2019-05-03T20:49:27.135Z,10.90
2019-05-03T20:51:56.485Z,10.81
2019-05-03T20:54:25.561Z,10.83
2019-05-03T20:56:54.890Z,10.88
2019-05-03T20:59:25.337Z,10.92
2019-05-03T21:01:54.676Z,10.86
2019-05-03T21:04:24.698Z,10.81
2019-05-03T21:06:55.197Z,10.75
2019-05-03T21:09:24.876Z,10.75
2019-05-03T21:11:55.158Z,10.73
2019-05-03T21:14:24.544Z,10.83
2019-05-03T21:17:15.963Z,10.83
2019-05-03T21:19:56.883Z,10.82
2019-05-03T21:22:38.947Z,10.83
2019-05-03T21:25:16.600Z,10.72
2019-05-03T21:27:45.875Z,10.70
2019-05-03T21:30:17.092Z,10.73
2019-05-03T21:32:46.233Z,10.63
2019-05-03T21:35:15.568Z,10.63
2019-05-03T21:37:45.390Z,10.65
2019-05-03T21:40:15.646Z,10.74
2019-05-03T21:42:45.301Z,10.62
2019-05-03T21:45:16.237Z,10.62
2019-05-03T21:48:14.649Z,10.56
2019-05-03T21:50:44.723Z,10.46
2019-05-03T21:53:14.726Z,10.45
2019-05-03T21:55:44.877Z,10.43
2019-05-03T21:58:16.143Z,10.43
2019-05-03T22:00:54.661Z,10.40
2019-05-03T22:03:25.300Z,10.39
2019-05-03T22:05:57.852Z,10.41
2019-05-03T22:08:25.338Z,10.44
2019-05-03T22:10:55.480Z,10.45
2019-05-03T22:13:24.791Z,10.40
2019-05-03T22:15:58.863Z,10.34
2019-05-03T22:18:29.824Z,10.36
2019-05-03T22:21:05.532Z,10.36
2019-05-03T22:23:56.603Z,10.34
2019-05-03T22:26:45.260Z,10.41
2019-05-03T22:29:17.233Z,10.43
2019-05-03T22:31:46.026Z,10.54
2019-05-03T22:34:15.249Z,10.53
2019-05-03T22:36:44.606Z,10.54
2019-05-03T22:39:15.662Z,10.46
2019-05-03T22:41:44.561Z,10.49
2019-05-03T22:44:16.818Z,10.56
2019-05-03T22:46:44.976Z,10.60
2019-05-03T22:49:15.591Z,10.66
2019-05-03T22:51:45.155Z,10.69
2019-05-03T22:54:15.367Z,10.63
2019-05-03T22:56:45.007Z,10.59
2019-05-03T22:59:14.879Z,10.63
2019-05-03T23:01:45.771Z,10.60
2019-05-03T23:04:15.796Z,10.69
2019-05-03T23:06:47.107Z,10.66
2019-05-03T23:09:16.085Z,10.64
2019-05-03T23:11:45.189Z,10.68
2019-05-03T23:14:15.170Z,10.70
2019-05-03T23:16:44.964Z,10.75
2019-05-03T23:19:15.139Z,10.82
2019-05-03T23:21:54.463Z,10.79
2019-05-03T23:24:24.750Z,10.71
2019-05-03T23:26:53.888Z,10.71
2019-05-03T23:29:23.239Z,10.76
2019-05-03T23:31:52.322Z,10.63
2019-05-03T23:34:21.733Z,10.59
2019-05-03T23:36:50.849Z,10.61
2019-05-03T23:39:20.129Z,10.62
2019-05-03T23:41:51.443Z,10.55
2019-05-03T23:44:20.554Z,10.72
2019-05-03T23:46:59.920Z,10.59
2019-05-03T23:49:30.877Z,10.57
2019-05-03T23:52:04.508Z,10.54
2019-05-03T23:54:33.657Z,10.49
2019-05-03T23:57:02.796Z,10.50
2019-05-03T23:59:32.041Z,10.45
